Time;durP1;ratioP1;P1;durP2;ratioP2;P2;SDS_P1;SDS_P2;PMS_P1;PMS_P2;Temp;Humidity;BMP_temperature;BMP_pressure;BME280_temperature;BME280_humidity;BME280_pressure;Samples;Min_cycle;Max_cycle;Signal;HPM_P1;HPM_P2
2023/04/20 00:00:26;;;;;;;;;;;;;;;;;;2206647;59;43826;-18
2023/04/20 00:02:57;;;;;;;;;;;;;;;;;;2210031;59;1941;-18
2023/04/20 00:05:29;;;;;;;;;;;;;;;;;;2205304;59;1764;-18
2023/04/20 00:08:00;;;;;;;;;;;;;;;;;;2209315;67;1308;-18
2023/04/20 00:10:30;;;;;;;;;;;;;;;;;;2208113;67;1382;-18
2023/04/20 00:13:00;;;;;;;;;;;;;;;;;;2208632;67;1124;-18
2023/04/20 00:15:31;;;;;;;;;;;;;;;;;;2207055;67;27599;-18
2023/04/20 00:18:11;;;;;;;;;;;;;;;;;;2214258;67;1327;-18
2023/04/20 00:20:42;;;;;;;;;;;;;;;;;;2214271;59;1018;-18
2023/04/20 00:23:12;;;;;;;;;;;;;;;;;;2210634;67;2002;-18
2023/04/20 00:25:48;;;;;;;;;;;;;;;;;;2213029;67;1185;-18
2023/04/20 00:28:18;;;;;;;;;;;;;;;;;;2210432;59;1275;-18
2023/04/20 00:30:48;;;;;;;;;;;;;;;;;;2205622;59;23087;-18
2023/04/20 00:33:19;;;;;;;;;;;;;;;;;;2204052;67;1645;-18
2023/04/20 00:35:49;;;;;;;;;;;;;;;;;;2206391;67;1062;-18
2023/04/20 00:38:20;;;;;;;;;;;;;;;;;;2209134;67;1249;-18
2023/04/20 00:40:53;;;;;;;;;;;;;;;;;;2205536;67;1813;-18
2023/04/20 00:43:23;;;;;;;;;;;;;;;;;;2208389;67;1999;-18
2023/04/20 00:45:57;;;;;;;;;;;;;;;;;;2203229;59;35943;-18
2023/04/20 00:48:27;;;;;;;;;;;;;;;;;;2206788;59;1183;-20
2023/04/20 00:50:57;;;;;;;;;;;;;;;;;;2208579;59;2275;-20
2023/04/20 00:53:28;;;;;;;;;;;;;;;;;;2204910;59;2147;-20
2023/04/20 00:55:58;;;;;;;;;;;;;;;;;;2209064;59;2293;-20
2023/04/20 00:58:29;;;;;;;;;;;;;;;;;;2209120;67;1116;-20
2023/04/20 01:00:59;;;;;;;;;;;;;;;;;;2206897;59;34547;-20
2023/04/20 01:03:30;;;;;;;;;;;;;;;;;;2209911;59;1776;-20
2023/04/20 01:06:01;;;;;;;;;;;;;;;;;;2209762;59;1413;-20
2023/04/20 01:08:31;;;;;;;;;;;;;;;;;;2209679;67;1330;-20
2023/04/20 01:11:04;;;;;;;;;;;;;;;;;;2209897;67;1145;-20
2023/04/20 01:13:37;;;;;;;;;;;;;;;;;;2209488;59;2081;-20
2023/04/20 01:16:07;;;;;;;;;;;;;;;;;;2207364;63;35235;-20
2023/04/20 01:18:45;;;;;;;;;;;;;;;;;;2209693;67;1497;-20
2023/04/20 01:21:17;;;;;;;;;;;;;;;;;;2208697;67;1937;-20
2023/04/20 01:23:48;;;;;;;;;;;;;;;;;;2209808;67;1767;-20
2023/04/20 01:26:19;;;;;;;;;;;;;;;;;;2206319;67;1493;-20
2023/04/20 01:28:50;;;;;;;;;;;;;;;;;;2210329;59;1425;-20
2023/04/20 01:31:20;;;;;;;;;;;;;;;;;;2202709;59;22084;-20
2023/04/20 01:33:53;;;;;;;;;;;;;;;;;;2209905;67;2140;-20
2023/04/20 01:36:31;;;;;;;;;;;;;;;;;;2210319;59;1821;-20
2023/04/20 01:39:01;;;;;;;;;;;;;;;;;;2209551;67;1346;-20
2023/04/20 01:41:31;;;;;;;;;;;;;;;;;;2206678;67;1928;-20
2023/04/20 01:44:02;;;;;;;;;;;;;;;;;;2209851;67;1664;-20
2023/04/20 01:46:32;;;;;;;;;;;;;;;;;;2209647;59;1268;-20
2023/04/20 01:49:02;;;;;;;;;;;;;;;;;;2209553;59;1126;-20
2023/04/20 01:51:33;;;;;;;;;;;;;;;;;;2206108;59;2532;-20
2023/04/20 01:54:03;;;;;;;;;;;;;;;;;;2208650;59;2737;-20
2023/04/20 01:56:34;;;;;;;;;;;;;;;;;;2209198;59;2451;-20
2023/04/20 01:59:04;;;;;;;;;;;;;;;;;;2209488;67;1126;-20
2023/04/20 02:01:34;;;;;;;;;;;;;;;;;;2206568;59;50328;-20
2023/04/20 02:04:05;;;;;;;;;;;;;;;;;;2211108;59;2323;-20
2023/04/20 02:06:35;;;;;;;;;;;;;;;;;;2203205;67;1447;-20
2023/04/20 02:09:08;;;;;;;;;;;;;;;;;;2208906;67;1710;-20
2023/04/20 02:11:38;;;;;;;;;;;;;;;;;;2210947;59;1312;-20
2023/04/20 02:14:08;;;;;;;;;;;;;;;;;;2209936;67;1199;-20
2023/04/20 02:16:40;;;;;;;;;;;;;;;;;;2206841;67;71711;-20
2023/04/20 02:19:10;;;;;;;;;;;;;;;;;;2209638;67;1136;-20
2023/04/20 02:21:41;;;;;;;;;;;;;;;;;;2209632;59;1974;-20
2023/04/20 02:24:11;;;;;;;;;;;;;;;;;;2209183;67;1715;-20
2023/04/20 02:26:41;;;;;;;;;;;;;;;;;;2208607;67;1145;-20
2023/04/20 02:29:15;;;;;;;;;;;;;;;;;;2209653;67;1361;-20
2023/04/20 02:31:45;;;;;;;;;;;;;;;;;;2204282;59;20636;-20
2023/04/20 02:34:15;;;;;;;;;;;;;;;;;;2206304;59;1336;-20
2023/04/20 02:36:47;;;;;;;;;;;;;;;;;;2211113;67;1334;-20
2023/04/20 02:39:17;;;;;;;;;;;;;;;;;;2210357;67;1292;-20
2023/04/20 02:41:48;;;;;;;;;;;;;;;;;;2210097;67;1982;-20
2023/04/20 02:44:18;;;;;;;;;;;;;;;;;;2205859;67;1439;-20
2023/04/20 02:46:49;;;;;;;;;;;;;;;;;;2204745;67;16553;-20
2023/04/20 02:49:19;;;;;;;;;;;;;;;;;;2210451;59;1152;-20
2023/04/20 02:51:49;;;;;;;;;;;;;;;;;;2209174;59;1813;-20
2023/04/20 02:54:23;;;;;;;;;;;;;;;;;;2209045;59;2631;-20
2023/04/20 02:56:53;;;;;;;;;;;;;;;;;;2205377;59;2811;-20
2023/04/20 02:59:24;;;;;;;;;;;;;;;;;;2208619;67;1430;-20
2023/04/20 03:01:54;;;;;;;;;;;;;;;;;;2206780;59;19957;-20
2023/04/20 03:04:26;;;;;;;;;;;;;;;;;;2209171;59;1922;-20
2023/04/20 03:06:57;;;;;;;;;;;;;;;;;;2209310;59;1259;-20
2023/04/20 03:09:27;;;;;;;;;;;;;;;;;;2205486;67;1130;-20
2023/04/20 03:11:58;;;;;;;;;;;;;;;;;;2208807;67;1535;-20
2023/04/20 03:14:28;;;;;;;;;;;;;;;;;;2206711;67;1745;-20
2023/04/20 03:16:58;;;;;;;;;;;;;;;;;;2206283;67;1902;-20
2023/04/20 03:19:29;;;;;;;;;;;;;;;;;;2205209;59;2083;-20
2023/04/20 03:21:59;;;;;;;;;;;;;;;;;;2210013;59;2026;-20
2023/04/20 03:24:29;;;;;;;;;;;;;;;;;;2208912;67;1114;-20
2023/04/20 03:27:00;;;;;;;;;;;;;;;;;;2208801;67;1664;-20
2023/04/20 03:29:30;;;;;;;;;;;;;;;;;;2205685;59;1304;-20
2023/04/20 03:32:02;;;;;;;;;;;;;;;;;;2206801;59;33364;-20
2023/04/20 03:34:32;;;;;;;;;;;;;;;;;;2210139;59;1392;-20
2023/04/20 03:37:03;;;;;;;;;;;;;;;;;;2208924;59;1350;-20
2023/04/20 03:39:33;;;;;;;;;;;;;;;;;;2209224;67;1402;-20
2023/04/20 03:42:03;;;;;;;;;;;;;;;;;;2209507;67;1933;-20
2023/04/20 03:44:33;;;;;;;;;;;;;;;;;;2209235;67;1229;-20
2023/04/20 03:47:08;;;;;;;;;;;;;;;;;;2202865;59;17900;-20
2023/04/20 03:49:38;;;;;;;;;;;;;;;;;;2205479;59;1149;-20
2023/04/20 03:52:08;;;;;;;;;;;;;;;;;;2208197;59;1244;-20
2023/04/20 03:54:39;;;;;;;;;;;;;;;;;;2205109;59;2254;-20
2023/04/20 03:57:09;;;;;;;;;;;;;;;;;;2207249;59;2320;-20
2023/04/20 03:59:39;;;;;;;;;;;;;;;;;;2207848;67;1453;-20
2023/04/20 04:02:12;;;;;;;;;;;;;;;;;;2204899;59;66972;-20
2023/04/20 04:04:42;;;;;;;;;;;;;;;;;;2208123;59;2179;-20
2023/04/20 04:07:13;;;;;;;;;;;;;;;;;;2208009;67;1606;-20
2023/04/20 04:09:43;;;;;;;;;;;;;;;;;;2209841;67;1230;-20
2023/04/20 04:12:16;;;;;;;;;;;;;;;;;;2211180;67;1677;-20
2023/04/20 04:14:47;;;;;;;;;;;;;;;;;;2209277;67;1305;-20
2023/04/20 04:17:17;;;;;;;;;;;;;;;;;;2207657;59;13206;-20
2023/04/20 04:19:48;;;;;;;;;;;;;;;;;;2209840;67;1148;-20
2023/04/20 04:22:18;;;;;;;;;;;;;;;;;;2209782;67;1967;-20
2023/04/20 04:24:57;;;;;;;;;;;;;;;;;;2210650;67;1208;-20
2023/04/20 04:27:33;;;;;;;;;;;;;;;;;;2210352;59;1338;-20
2023/04/20 04:30:04;;;;;;;;;;;;;;;;;;2205227;59;2696;-20
2023/04/20 04:32:35;;;;;;;;;;;;;;;;;;2206613;59;21805;-20
2023/04/20 04:35:05;;;;;;;;;;;;;;;;;;2207192;67;1166;-20
2023/04/20 04:37:36;;;;;;;;;;;;;;;;;;2210022;59;1303;-20
2023/04/20 04:40:13;;;;;;;;;;;;;;;;;;2209774;67;1121;-20
2023/04/20 04:42:44;;;;;;;;;;;;;;;;;;2207189;67;2012;-20
2023/04/20 04:45:15;;;;;;;;;;;;;;;;;;2208813;59;1887;-20
2023/04/20 04:47:45;;;;;;;;;;;;;;;;;;2209228;59;29641;-20
2023/04/20 04:50:16;;;;;;;;;;;;;;;;;;2207993;67;1373;-20
2023/04/20 04:52:46;;;;;;;;;;;;;;;;;;2210676;59;1101;-20
2023/04/20 04:55:16;;;;;;;;;;;;;;;;;;2210011;59;1501;-20
2023/04/20 04:57:47;;;;;;;;;;;;;;;;;;2208440;67;2551;-20
2023/04/20 05:00:17;;;;;;;;;;;;;;;;;;2205575;59;16477;-20
2023/04/20 05:02:48;;;;;;;;;;;;;;;;;;2210508;59;1985;-20
2023/04/20 05:05:18;;;;;;;;;;;;;;;;;;2210104;59;1560;-20
2023/04/20 05:07:49;;;;;;;;;;;;;;;;;;2209566;67;2194;-20
2023/04/20 05:10:19;;;;;;;;;;;;;;;;;;2210175;67;1163;-20
2023/04/20 05:12:51;;;;;;;;;;;;;;;;;;2210149;67;1677;-20
2023/04/20 05:15:21;;;;;;;;;;;;;;;;;;2208056;59;24604;-20
2023/04/20 05:17:52;;;;;;;;;;;;;;;;;;2209911;67;1301;-20
2023/04/20 05:20:22;;;;;;;;;;;;;;;;;;2209636;59;1261;-20
2023/04/20 05:22:55;;;;;;;;;;;;;;;;;;2210517;67;2159;-20
2023/04/20 05:25:26;;;;;;;;;;;;;;;;;;2203924;67;1458;-19
2023/04/20 05:27:56;;;;;;;;;;;;;;;;;;2206730;59;1692;-20
2023/04/20 05:30:30;;;;;;;;;;;;;;;;;;2205840;59;1958;-20
2023/04/20 05:33:00;;;;;;;;;;;;;;;;;;2209256;59;1358;-20
2023/04/20 05:35:30;;;;;;;;;;;;;;;;;;2208684;67;1223;-20
2023/04/20 05:38:04;;;;;;;;;;;;;;;;;;2209580;67;1664;-20
2023/04/20 05:40:35;;;;;;;;;;;;;;;;;;2209364;67;1300;-20
2023/04/20 05:43:05;;;;;;;;;;;;;;;;;;2209506;59;1910;-20
2023/04/20 05:45:35;;;;;;;;;;;;;;;;;;2207769;60;12662;-20
2023/04/20 05:48:06;;;;;;;;;;;;;;;;;;2209895;59;1299;-20
2023/04/20 05:50:39;;;;;;;;;;;;;;;;;;2210260;59;1188;-20
2023/04/20 05:53:10;;;;;;;;;;;;;;;;;;2207604;59;1314;-20
2023/04/20 05:55:40;;;;;;;;;;;;;;;;;;2206824;59;1341;-20
2023/04/20 05:58:10;;;;;;;;;;;;;;;;;;2208378;59;2829;-20
2023/04/20 06:00:41;;;;;;;;;;;;;;;;;;2207135;59;17309;-20
2023/04/20 06:03:11;;;;;;;;;;;;;;;;;;2210114;59;2094;-20
2023/04/20 06:05:42;;;;;;;;;;;;;;;;;;2209327;67;1394;-20
2023/04/20 06:08:12;;;;;;;;;;;;;;;;;;2209950;67;1673;-20
2023/04/20 06:10:42;;;;;;;;;;;;;;;;;;2207061;67;1825;-20
2023/04/20 06:13:12;;;;;;;;;;;;;;;;;;2209232;67;1218;-20
2023/04/20 06:15:43;;;;;;;;;;;;;;;;;;2207576;59;20372;-20
2023/04/20 06:18:13;;;;;;;;;;;;;;;;;;2206445;59;2032;-20
2023/04/20 06:20:43;;;;;;;;;;;;;;;;;;2210274;59;2204;-20
2023/04/20 06:23:14;;;;;;;;;;;;;;;;;;2210125;67;1945;-20
2023/04/20 06:25:45;;;;;;;;;;;;;;;;;;2209653;59;2240;-20
2023/04/20 06:28:15;;;;;;;;;;;;;;;;;;2210078;59;1277;-20
2023/04/20 06:30:45;;;;;;;;;;;;;;;;;;2203813;59;52118;-20
2023/04/20 06:33:16;;;;;;;;;;;;;;;;;;2210280;59;2039;-28
2023/04/20 06:35:50;;;;;;;;;;;;;;;;;;2211733;59;2221;-20
2023/04/20 06:38:21;;;;;;;;;;;;;;;;;;2210156;67;1786;-20
2023/04/20 06:40:51;;;;;;;;;;;;;;;;;;2210242;59;2306;-20
2023/04/20 06:43:21;;;;;;;;;;;;;;;;;;2207777;59;2008;-20
2023/04/20 06:45:52;;;;;;;;;;;;;;;;;;2204677;59;2118;-20
2023/04/20 06:48:22;;;;;;;;;;;;;;;;;;2209960;54;2003;-23
2023/04/20 06:50:52;;;;;;;;;;;;;;;;;;2208234;59;2444;-23
2023/04/20 06:53:22;;;;;;;;;;;;;;;;;;2209593;59;2020;-23
2023/04/20 06:55:54;;;;;;;;;;;;;;;;;;2208676;59;2126;-23
2023/04/20 06:58:24;;;;;;;;;;;;;;;;;;2207569;67;2640;-23
2023/04/20 07:00:54;;;;;;;;;;;;;;;;;;2204596;59;12419;-23
2023/04/20 07:03:25;;;;;;;;;;;;;;;;;;2205491;59;1941;-23
2023/04/20 07:05:55;;;;;;;;;;;;;;;;;;2205376;59;2400;-24
2023/04/20 07:08:25;;;;;;;;;;;;;;;;;;2207129;67;1296;-24
2023/04/20 07:10:55;;;;;;;;;;;;;;;;;;2203787;59;2260;-24
2023/04/20 07:13:25;;;;;;;;;;;;;;;;;;2203139;67;2459;-24
2023/04/20 07:15:56;;;;;;;;;;;;;;;;;;2204611;59;12861;-24
2023/04/20 07:18:26;;;;;;;;;;;;;;;;;;2208423;59;1865;-24
2023/04/20 07:20:56;;;;;;;;;;;;;;;;;;2206256;59;2222;-23
2023/04/20 07:23:27;;;;;;;;;;;;;;;;;;2206769;67;1934;-23
2023/04/20 07:25:57;;;;;;;;;;;;;;;;;;2205700;59;2621;-23
2023/04/20 07:28:27;;;;;;;;;;;;;;;;;;2207430;59;1255;-23
2023/04/20 07:30:58;;;;;;;;;;;;;;;;;;2204451;59;12182;-23
2023/04/20 07:33:30;;;;;;;;;;;;;;;;;;2202746;59;2256;-23
2023/04/20 07:36:00;;;;;;;;;;;;;;;;;;2207143;59;2261;-23
2023/04/20 07:38:30;;;;;;;;;;;;;;;;;;2206941;59;2570;-23
2023/04/20 07:41:01;;;;;;;;;;;;;;;;;;2201035;59;2621;-23
2023/04/20 07:43:32;;;;;;;;;;;;;;;;;;2207010;67;2283;-23
2023/04/20 07:46:02;;;;;;;;;;;;;;;;;;2201379;59;13727;-23
2023/04/20 07:48:33;;;;;;;;;;;;;;;;;;2208725;59;1935;-23
2023/04/20 07:51:03;;;;;;;;;;;;;;;;;;2208439;59;3178;-23
2023/04/20 07:53:34;;;;;;;;;;;;;;;;;;2204024;59;1348;-23
2023/04/20 07:56:04;;;;;;;;;;;;;;;;;;2207059;59;1862;-23
2023/04/20 07:58:37;;;;;;;;;;;;;;;;;;2206961;67;1230;-23
2023/04/20 08:01:07;;;;;;;;;;;;;;;;;;2201713;59;14140;-23
2023/04/20 08:03:37;;;;;;;;;;;;;;;;;;2207359;59;1933;-23
2023/04/20 08:06:10;;;;;;;;;;;;;;;;;;2207643;59;2106;-23
2023/04/20 08:08:41;;;;;;;;;;;;;;;;;;2208903;67;1292;-23
2023/04/20 08:11:12;;;;;;;;;;;;;;;;;;2205889;59;2162;-23
2023/04/20 08:13:42;;;;;;;;;;;;;;;;;;2208986;67;1348;-23
2023/04/20 08:16:15;;;;;;;;;;;;;;;;;;2207814;67;1460;-23
2023/04/20 08:18:45;;;;;;;;;;;;;;;;;;2208648;59;2393;-23
2023/04/20 08:21:15;;;;;;;;;;;;;;;;;;2202948;59;2080;-23
2023/04/20 08:23:46;;;;;;;;;;;;;;;;;;2207794;67;1209;-23
2023/04/20 08:26:16;;;;;;;;;;;;;;;;;;2203716;59;2163;-23
2023/04/20 08:28:46;;;;;;;;;;;;;;;;;;2207820;59;1336;-23
2023/04/20 08:31:16;;;;;;;;;;;;;;;;;;2202108;59;12337;-23
2023/04/20 08:33:47;;;;;;;;;;;;;;;;;;2203827;59;1968;-23
2023/04/20 08:36:17;;;;;;;;;;;;;;;;;;2203148;59;2242;-23
2023/04/20 08:38:53;;;;;;;;;;;;;;;;;;2206956;59;1867;-23
2023/04/20 08:41:24;;;;;;;;;;;;;;;;;;2208837;67;2224;-23
2023/04/20 08:43:54;;;;;;;;;;;;;;;;;;2205484;67;1438;-23
2023/04/20 08:46:24;;;;;;;;;;;;;;;;;;2204843;59;12951;-23
2023/04/20 08:48:55;;;;;;;;;;;;;;;;;;2207239;59;1816;-23
2023/04/20 08:51:26;;;;;;;;;;;;;;;;;;2204357;59;2191;-23
2023/04/20 08:53:58;;;;;;;;;;;;;;;;;;2206631;59;2244;-23
2023/04/20 08:56:35;;;;;;;;;;;;;;;;;;2207139;59;2116;-23
2023/04/20 08:59:08;;;;;;;;;;;;;;;;;;2207380;67;1107;-23
2023/04/20 09:01:40;;;;;;;;;;;;;;;;;;2203683;59;14880;-23
2023/04/20 09:04:15;;;;;;;;;;;;;;;;;;2204375;59;1869;-23
2023/04/20 09:06:51;;;;;;;;;;;;;;;;;;2206674;59;2249;-23
2023/04/20 09:09:24;;;;;;;;;;;;;;;;;;2207446;67;1229;-23
2023/04/20 09:12:01;;;;;;;;;;;;;;;;;;2208156;59;1953;-23
2023/04/20 09:14:42;;;;;;;;;;;;;;;;;;2207813;59;1525;-23
2023/04/20 09:17:13;;;;;;;;;;;;;;;;;;2207697;59;2037;-23
2023/04/20 09:19:44;;;;;;;;;;;;;;;;;;2208294;59;1285;-23
2023/04/20 09:22:14;;;;;;;;;;;;;;;;;;2207571;59;2185;-23
2023/04/20 09:24:44;;;;;;;;;;;;;;;;;;2207294;59;2201;-23
2023/04/20 09:27:15;;;;;;;;;;;;;;;;;;2207061;59;2083;-23
2023/04/20 09:29:58;;;;;;;;;;;;;;;;;;2206547;59;2380;-23
2023/04/20 09:32:29;;;;;;;;;;;;;;;;;;2199741;59;12095;-23
2023/04/20 09:35:00;;;;;;;;;;;;;;;;;;2205202;67;1405;-23
2023/04/20 09:37:30;;;;;;;;;;;;;;;;;;2204060;59;2179;-23
2023/04/20 09:40:01;;;;;;;;;;;;;;;;;;2207033;67;1246;-23
2023/04/20 09:42:31;;;;;;;;;;;;;;;;;;2207770;59;2287;-23
2023/04/20 09:45:02;;;;;;;;;;;;;;;;;;2208363;67;1298;-23
2023/04/20 09:47:34;;;;;;;;;;;;;;;;;;2204283;59;14168;-23
2023/04/20 09:50:10;;;;;;;;;;;;;;;;;;2208123;59;1248;-23
2023/04/20 09:52:41;;;;;;;;;;;;;;;;;;2207570;59;2095;-23
2023/04/20 09:55:12;;;;;;;;;;;;;;;;;;2205740;59;2011;-23
2023/04/20 09:57:43;;;;;;;;;;;;;;;;;;2207261;59;2230;-23
2023/04/20 10:00:13;;;;;;;;;;;;;;;;;;2205017;67;1858;-23
2023/04/20 10:02:45;;;;;;;;;;;;;;;;;;2204479;59;11923;-23
2023/04/20 10:05:16;;;;;;;;;;;;;;;;;;2207133;59;1448;-23
2023/04/20 10:07:46;;;;;;;;;;;;;;;;;;2207620;59;2173;-23
2023/04/20 10:10:16;;;;;;;;;;;;;;;;;;2206905;67;1724;-22
2023/04/20 10:12:46;;;;;;;;;;;;;;;;;;2208001;59;2156;-22
2023/04/20 10:15:17;;;;;;;;;;;;;;;;;;2205207;59;13087;-23
2023/04/20 10:17:48;;;;;;;;;;;;;;;;;;2207156;59;2277;-23
2023/04/20 10:20:23;;;;;;;;;;;;;;;;;;2207496;59;1755;-22
2023/04/20 10:23:08;;;;;;;;;;;;;;;;;;2203025;59;1939;-23
2023/04/20 10:25:39;;;;;;;;;;;;;;;;;;2202619;59;2314;-23
2023/04/20 10:28:09;;;;;;;;;;;;;;;;;;2205520;59;1823;-23
2023/04/20 10:30:49;;;;;;;;;;;;;;;;;;2203221;59;12282;-23
2023/04/20 10:33:19;;;;;;;;;;;;;;;;;;2206333;59;1775;-23
2023/04/20 10:35:53;;;;;;;;;;;;;;;;;;2206337;67;1274;-23
2023/04/20 10:38:34;;;;;;;;;;;;;;;;;;2206612;67;1778;-23
2023/04/20 10:41:05;;;;;;;;;;;;;;;;;;2205995;67;1194;-23
2023/04/20 10:43:45;;;;;;;;;;;;;;;;;;2207369;67;2004;-22
2023/04/20 10:46:20;;;;;;;;;;;;;;;;;;2204244;59;19173;-23
2023/04/20 10:49:00;;;;;;;;;;;;;;;;;;2208180;59;1735;-23
2023/04/20 10:51:31;;;;;;;;;;;;;;;;;;2206487;59;1146;-34
2023/04/20 10:54:06;;;;;;;;;;;;;;;;;;2207616;59;1671;-22
2023/04/20 10:56:37;;;;;;;;;;;;;;;;;;2205731;59;1487;-23
2023/04/20 10:59:12;;;;;;;;;;;;;;;;;;2205611;67;1145;-23
2023/04/20 11:01:42;;;;;;;;;;;;;;;;;;2203308;59;12458;-23
2023/04/20 11:04:13;;;;;;;;;;;;;;;;;;2205030;59;2885;-23
2023/04/20 11:06:45;;;;;;;;;;;;;;;;;;2206826;67;1617;-23
2023/04/20 11:09:19;;;;;;;;;;;;;;;;;;2206307;59;2015;-23
2023/04/20 11:12:05;;;;;;;;;;;;;;;;;;2207543;67;1131;-22
2023/04/20 11:14:37;;;;;;;;;;;;;;;;;;2207755;67;1092;-23
2023/04/20 11:17:07;;;;;;;;;;;;;;;;;;2198630;64;13006;-22
2023/04/20 11:19:37;;;;;;;;;;;;;;;;;;2204619;67;1648;-23
2023/04/20 11:22:08;;;;;;;;;;;;;;;;;;2206270;59;2306;-22
2023/04/20 11:24:40;;;;;;;;;;;;;;;;;;2207379;67;1286;-22
2023/04/20 11:27:17;;;;;;;;;;;;;;;;;;2206741;59;1440;-22
2023/04/20 11:29:55;;;;;;;;;;;;;;;;;;2207469;59;1652;-23
2023/04/20 11:32:28;;;;;;;;;;;;;;;;;;2204192;59;16475;-21
2023/04/20 11:35:00;;;;;;;;;;;;;;;;;;2207094;67;1371;-21
2023/04/20 11:37:31;;;;;;;;;;;;;;;;;;2207350;67;1533;-21
2023/04/20 11:40:08;;;;;;;;;;;;;;;;;;2203065;59;2087;-21
2023/04/20 11:42:39;;;;;;;;;;;;;;;;;;2207732;67;1924;-21
2023/04/20 11:45:10;;;;;;;;;;;;;;;;;;2206116;59;1883;-21
2023/04/20 11:47:40;;;;;;;;;;;;;;;;;;2207428;59;16579;-21
2023/04/20 11:50:11;;;;;;;;;;;;;;;;;;2207962;59;1351;-21
2023/04/20 11:52:41;;;;;;;;;;;;;;;;;;2207857;59;1202;-21
2023/04/20 11:55:11;;;;;;;;;;;;;;;;;;2204486;59;1400;-21
2023/04/20 11:57:42;;;;;;;;;;;;;;;;;;2207513;67;1277;-21
2023/04/20 12:00:12;;;;;;;;;;;;;;;;;;2205241;60;2412;-22
2023/04/20 12:02:43;;;;;;;;;;;;;;;;;;2205028;59;12527;-22
2023/04/20 12:05:13;;;;;;;;;;;;;;;;;;2206376;59;2303;-22
2023/04/20 12:07:43;;;;;;;;;;;;;;;;;;2204206;67;2945;-22
2023/04/20 12:10:16;;;;;;;;;;;;;;;;;;2206939;67;1628;-22
2023/04/20 12:12:46;;;;;;;;;;;;;;;;;;2206862;67;1665;-22
2023/04/20 12:15:16;;;;;;;;;;;;;;;;;;2202153;59;12860;-22
2023/04/20 12:17:47;;;;;;;;;;;;;;;;;;2209036;67;2267;-22
2023/04/20 12:20:17;;;;;;;;;;;;;;;;;;2208027;59;1678;-22
2023/04/20 12:22:47;;;;;;;;;;;;;;;;;;2207399;67;1979;-22
2023/04/20 12:25:17;;;;;;;;;;;;;;;;;;2207200;67;1168;-22
2023/04/20 12:27:48;;;;;;;;;;;;;;;;;;2207987;59;1669;-22
2023/04/20 12:30:18;;;;;;;;;;;;;;;;;;2206081;59;2167;-22
2023/04/20 12:32:48;;;;;;;;;;;;;;;;;;2201842;59;14571;-22
2023/04/20 12:35:19;;;;;;;;;;;;;;;;;;2207937;67;2639;-22
2023/04/20 12:37:50;;;;;;;;;;;;;;;;;;2208306;67;1439;-22
2023/04/20 12:40:20;;;;;;;;;;;;;;;;;;2207795;67;1127;-22
2023/04/20 12:42:50;;;;;;;;;;;;;;;;;;2207610;67;1987;-22
2023/04/20 12:45:21;;;;;;;;;;;;;;;;;;2204196;59;2422;-22
2023/04/20 12:47:51;;;;;;;;;;;;;;;;;;2207889;59;2481;-22
2023/04/20 12:50:21;;;;;;;;;;;;;;;;;;2206613;59;2615;-22
2023/04/20 12:52:51;;;;;;;;;;;;;;;;;;2207514;59;2204;-21
2023/04/20 12:55:22;;;;;;;;;;;;;;;;;;2207844;59;2196;-21
2023/04/20 12:57:52;;;;;;;;;;;;;;;;;;2206961;67;2000;-21
2023/04/20 13:00:22;;;;;;;;;;;;;;;;;;2204419;67;12989;-22
2023/04/20 13:02:52;;;;;;;;;;;;;;;;;;2207088;59;1933;-21
2023/04/20 13:05:23;;;;;;;;;;;;;;;;;;2204880;59;2328;-21
2023/04/20 13:07:53;;;;;;;;;;;;;;;;;;2206352;67;2356;-22
2023/04/20 13:10:23;;;;;;;;;;;;;;;;;;2204396;59;1305;-21
2023/04/20 13:12:54;;;;;;;;;;;;;;;;;;2207281;67;1271;-21
2023/04/20 13:15:25;;;;;;;;;;;;;;;;;;2204905;59;12002;-22
2023/04/20 13:17:55;;;;;;;;;;;;;;;;;;2204147;59;1508;-21
2023/04/20 13:20:28;;;;;;;;;;;;;;;;;;2208159;59;1306;-21
2023/04/20 13:22:59;;;;;;;;;;;;;;;;;;2207877;67;1939;-22
2023/04/20 13:25:33;;;;;;;;;;;;;;;;;;2205069;67;1160;-21
2023/04/20 13:28:04;;;;;;;;;;;;;;;;;;2207844;59;1286;-21
2023/04/20 13:30:37;;;;;;;;;;;;;;;;;;2206037;59;15545;-22
2023/04/20 13:33:07;;;;;;;;;;;;;;;;;;2208279;59;1512;-24
2023/04/20 13:35:38;;;;;;;;;;;;;;;;;;2206931;67;2421;-21
2023/04/20 13:38:11;;;;;;;;;;;;;;;;;;2206971;67;1483;-21
2023/04/20 13:40:43;;;;;;;;;;;;;;;;;;2206022;67;1291;-21
2023/04/20 13:43:13;;;;;;;;;;;;;;;;;;2204044;67;1919;-22
2023/04/20 13:45:43;;;;;;;;;;;;;;;;;;2205567;67;15102;-21
2023/04/20 13:48:13;;;;;;;;;;;;;;;;;;2204956;59;1667;-21
2023/04/20 13:50:44;;;;;;;;;;;;;;;;;;2208347;67;1232;-21
2023/04/20 13:53:14;;;;;;;;;;;;;;;;;;2208021;59;1361;-21
2023/04/20 13:55:44;;;;;;;;;;;;;;;;;;2207486;59;1193;-22
2023/04/20 13:58:15;;;;;;;;;;;;;;;;;;2207181;67;1296;-21
2023/04/20 14:00:45;;;;;;;;;;;;;;;;;;2204789;59;13851;-21
2023/04/20 14:03:17;;;;;;;;;;;;;;;;;;2208524;59;1971;-22
2023/04/20 14:05:47;;;;;;;;;;;;;;;;;;2206622;59;2768;-22
2023/04/20 14:08:18;;;;;;;;;;;;;;;;;;2206340;67;2302;-22
2023/04/20 14:10:48;;;;;;;;;;;;;;;;;;2207506;67;1175;-22
2023/04/20 14:13:19;;;;;;;;;;;;;;;;;;2202646;59;2571;-22
2023/04/20 14:15:50;;;;;;;;;;;;;;;;;;2205499;59;12259;-22
2023/04/20 14:18:20;;;;;;;;;;;;;;;;;;2207766;67;1651;-22
2023/04/20 14:20:51;;;;;;;;;;;;;;;;;;2207184;59;1267;-22
2023/04/20 14:23:21;;;;;;;;;;;;;;;;;;2208845;67;1996;-22
2023/04/20 14:25:51;;;;;;;;;;;;;;;;;;2208416;67;1281;-22
2023/04/20 14:28:21;;;;;;;;;;;;;;;;;;2206801;59;1275;-22
2023/04/20 14:30:52;;;;;;;;;;;;;;;;;;2204156;59;1334;-22
2023/04/20 14:33:22;;;;;;;;;;;;;;;;;;2206323;59;1812;-22
2023/04/20 14:35:52;;;;;;;;;;;;;;;;;;2207587;67;1275;-22
2023/04/20 14:38:23;;;;;;;;;;;;;;;;;;2207972;67;1643;-22
2023/04/20 14:40:53;;;;;;;;;;;;;;;;;;2207378;67;1395;-22
2023/04/20 14:43:24;;;;;;;;;;;;;;;;;;2207914;67;1987;-22
2023/04/20 14:45:54;;;;;;;;;;;;;;;;;;2205824;64;12081;-22
2023/04/20 14:48:27;;;;;;;;;;;;;;;;;;2204831;59;1685;-22
2023/04/20 14:50:57;;;;;;;;;;;;;;;;;;2204124;67;1308;-22
2023/04/20 14:53:30;;;;;;;;;;;;;;;;;;2207651;59;1420;-22
2023/04/20 14:56:01;;;;;;;;;;;;;;;;;;2209691;67;1300;-22
2023/04/20 14:58:31;;;;;;;;;;;;;;;;;;2206629;67;1258;-22
2023/04/20 15:01:01;;;;;;;;;;;;;;;;;;2204294;59;15770;-22
2023/04/20 15:03:32;;;;;;;;;;;;;;;;;;2207109;67;1940;-22
2023/04/20 15:06:02;;;;;;;;;;;;;;;;;;2206402;59;2786;-22
2023/04/20 15:08:32;;;;;;;;;;;;;;;;;;2206195;59;2571;-22
2023/04/20 15:11:04;;;;;;;;;;;;;;;;;;2203471;67;1666;-22
2023/04/20 15:13:34;;;;;;;;;;;;;;;;;;2207143;67;1628;-22
2023/04/20 15:16:04;;;;;;;;;;;;;;;;;;2201174;67;16759;-22
2023/04/20 15:18:35;;;;;;;;;;;;;;;;;;2207694;67;1361;-22
2023/04/20 15:21:07;;;;;;;;;;;;;;;;;;2207386;59;1558;-22
2023/04/20 15:23:37;;;;;;;;;;;;;;;;;;2205941;59;2197;-22
2023/04/20 15:26:07;;;;;;;;;;;;;;;;;;2205653;59;2105;-22
2023/04/20 15:28:38;;;;;;;;;;;;;;;;;;2206667;59;2152;-22
2023/04/20 15:31:08;;;;;;;;;;;;;;;;;;2207353;59;1358;-22
2023/04/20 15:33:38;;;;;;;;;;;;;;;;;;2207409;59;2000;-22
2023/04/20 15:36:08;;;;;;;;;;;;;;;;;;2206865;67;1411;-22
2023/04/20 15:38:39;;;;;;;;;;;;;;;;;;2203807;59;2317;-22
2023/04/20 15:41:09;;;;;;;;;;;;;;;;;;2207073;67;1149;-22
2023/04/20 15:43:39;;;;;;;;;;;;;;;;;;2200925;67;1937;-22
2023/04/20 15:46:10;;;;;;;;;;;;;;;;;;2201307;59;14452;-22
2023/04/20 15:48:40;;;;;;;;;;;;;;;;;;2207823;59;2019;-22
2023/04/20 15:51:10;;;;;;;;;;;;;;;;;;2205602;59;2442;-22
2023/04/20 15:53:43;;;;;;;;;;;;;;;;;;2200772;59;1272;-22
2023/04/20 15:56:13;;;;;;;;;;;;;;;;;;2205989;59;2090;-22
2023/04/20 15:58:44;;;;;;;;;;;;;;;;;;2203390;67;1818;-22
2023/04/20 16:01:16;;;;;;;;;;;;;;;;;;2203042;59;12141;-23
2023/04/20 16:03:47;;;;;;;;;;;;;;;;;;2204376;59;2388;-22
2023/04/20 16:06:17;;;;;;;;;;;;;;;;;;2202378;59;2062;-23
2023/04/20 16:08:49;;;;;;;;;;;;;;;;;;2205112;67;2645;-23
2023/04/20 16:11:22;;;;;;;;;;;;;;;;;;2206560;59;2100;-23
2023/04/20 16:13:54;;;;;;;;;;;;;;;;;;2204479;67;1292;-23
2023/04/20 16:16:24;;;;;;;;;;;;;;;;;;2204022;59;12281;-23
2023/04/20 16:18:54;;;;;;;;;;;;;;;;;;2207343;67;1554;-23
2023/04/20 16:21:25;;;;;;;;;;;;;;;;;;2207292;59;2104;-23
2023/04/20 16:23:55;;;;;;;;;;;;;;;;;;2208079;67;1945;-24
2023/04/20 16:26:25;;;;;;;;;;;;;;;;;;2203711;59;2042;-23
2023/04/20 16:28:56;;;;;;;;;;;;;;;;;;2208556;59;1261;-23
2023/04/20 16:31:26;;;;;;;;;;;;;;;;;;2204864;59;13869;-23
2023/04/20 16:33:57;;;;;;;;;;;;;;;;;;2207650;59;1485;-23
2023/04/20 16:36:27;;;;;;;;;;;;;;;;;;2207648;59;2348;-23
2023/04/20 16:39:00;;;;;;;;;;;;;;;;;;2204784;67;1128;-24
2023/04/20 16:41:31;;;;;;;;;;;;;;;;;;2206797;59;1998;-24
2023/04/20 16:44:01;;;;;;;;;;;;;;;;;;2203820;59;2109;-23
2023/04/20 16:46:31;;;;;;;;;;;;;;;;;;2204102;59;21515;-24
2023/04/20 16:49:02;;;;;;;;;;;;;;;;;;2204696;59;1626;-24
2023/04/20 16:51:32;;;;;;;;;;;;;;;;;;2199568;59;2243;-23
2023/04/20 16:54:02;;;;;;;;;;;;;;;;;;2206560;59;2262;-24
2023/04/20 16:56:33;;;;;;;;;;;;;;;;;;2207259;59;1252;-24
2023/04/20 16:59:03;;;;;;;;;;;;;;;;;;2207980;59;1320;-23
2023/04/20 17:01:33;;;;;;;;;;;;;;;;;;2205367;59;21953;-24
2023/04/20 17:04:03;;;;;;;;;;;;;;;;;;2208535;59;1960;-24
2023/04/20 17:06:34;;;;;;;;;;;;;;;;;;2206680;67;1265;-23
2023/04/20 17:09:05;;;;;;;;;;;;;;;;;;2206371;59;2736;-23
2023/04/20 17:11:37;;;;;;;;;;;;;;;;;;2206713;67;2606;-23
2023/04/20 17:14:07;;;;;;;;;;;;;;;;;;2207575;59;1216;-23
2023/04/20 17:16:38;;;;;;;;;;;;;;;;;;2204539;59;13308;-23
2023/04/20 17:19:08;;;;;;;;;;;;;;;;;;2207927;67;1680;-23
2023/04/20 17:21:39;;;;;;;;;;;;;;;;;;2206722;59;1643;-23
2023/04/20 17:24:09;;;;;;;;;;;;;;;;;;2207664;67;1646;-23
2023/04/20 17:26:40;;;;;;;;;;;;;;;;;;2207113;59;1429;-23